sensor_id;sensor_type;location;lat;lon;timestamp;pressure;altitude;pressure_sealevel;temperature;humidity
32081;BME280;18593;51.426;7.030;2023-01-29T00:01:14;101953.19;;;2.13;55.10
32081;BME280;18593;51.426;7.030;2023-01-29T00:03:41;101957.84;;;2.09;55.04
32081;BME280;18593;51.426;7.030;2023-01-29T00:06:08;101956.66;;;2.02;54.99
32081;BME280;18593;51.426;7.030;2023-01-29T00:08:38;101953.28;;;2.00;55.23
32081;BME280;18593;51.426;7.030;2023-01-29T00:11:06;101957.84;;;1.98;55.37
32081;BME280;18593;51.426;7.030;2023-01-29T00:13:34;101949.09;;;1.97;55.54
32081;BME280;18593;51.426;7.030;2023-01-29T00:16:01;101947.44;;;1.96;55.46
32081;BME280;18593;51.426;7.030;2023-01-29T00:18:29;101946.47;;;1.97;55.56
32081;BME280;18593;51.426;7.030;2023-01-29T00:20:56;101940.38;;;1.97;55.17
32081;BME280;18593;51.426;7.030;2023-01-29T00:23:23;101940.38;;;1.97;55.48
32081;BME280;18593;51.426;7.030;2023-01-29T00:25:51;101934.03;;;1.99;55.67
32081;BME280;18593;51.426;7.030;2023-01-29T00:28:18;101940.50;;;1.95;55.72
32081;BME280;18593;51.426;7.030;2023-01-29T00:30:45;101942.53;;;1.92;55.80
32081;BME280;18593;51.426;7.030;2023-01-29T00:33:12;101934.72;;;1.90;55.93
32081;BME280;18593;51.426;7.030;2023-01-29T00:35:39;101940.88;;;1.91;55.92
32081;BME280;18593;51.426;7.030;2023-01-29T00:38:07;101936.66;;;1.88;55.98
32081;BME280;18593;51.426;7.030;2023-01-29T00:40:36;101934.63;;;1.92;55.98
32081;BME280;18593;51.426;7.030;2023-01-29T00:43:19;101930.34;;;1.91;55.66
32081;BME280;18593;51.426;7.030;2023-01-29T00:46:03;101924.47;;;1.87;55.89
32081;BME280;18593;51.426;7.030;2023-01-29T00:48:32;101930.69;;;1.86;55.85
32081;BME280;18593;51.426;7.030;2023-01-29T00:51:00;101927.94;;;1.88;55.78
32081;BME280;18593;51.426;7.030;2023-01-29T00:53:27;101931.41;;;1.88;55.78
32081;BME280;18593;51.426;7.030;2023-01-29T00:55:54;101930.44;;;1.89;55.69
32081;BME280;18593;51.426;7.030;2023-01-29T00:58:22;101931.41;;;1.88;55.73
32081;BME280;18593;51.426;7.030;2023-01-29T01:01:00;101938.59;;;1.86;55.72
32081;BME280;18593;51.426;7.030;2023-01-29T01:03:28;101938.59;;;1.86;55.94
32081;BME280;18593;51.426;7.030;2023-01-29T01:06:04;101950.03;;;1.85;55.87
32081;BME280;18593;51.426;7.030;2023-01-29T01:08:31;101944.19;;;1.82;55.91
32081;BME280;18593;51.426;7.030;2023-01-29T01:11:16;101944.91;;;1.84;55.87
32081;BME280;18593;51.426;7.030;2023-01-29T01:13:44;101948.38;;;1.84;55.85
32081;BME280;18593;51.426;7.030;2023-01-29T01:16:12;101952.78;;;1.84;55.79
32081;BME280;18593;51.426;7.030;2023-01-29T01:18:40;101952.19;;;1.80;55.81
32081;BME280;18593;51.426;7.030;2023-01-29T01:21:07;101946.09;;;1.79;56.03
32081;BME280;18593;51.426;7.030;2023-01-29T01:23:34;101941.56;;;1.82;55.89
32081;BME280;18593;51.426;7.030;2023-01-29T01:26:01;101934.88;;;1.77;55.87
32081;BME280;18593;51.426;7.030;2023-01-29T01:28:28;101925.19;;;1.78;56.00
32081;BME280;18593;51.426;7.030;2023-01-29T01:30:56;101913.47;;;1.82;55.89
32081;BME280;18593;51.426;7.030;2023-01-29T01:33:23;101907.47;;;1.80;55.96
32081;BME280;18593;51.426;7.030;2023-01-29T01:35:50;101900.81;;;1.76;56.04
32081;BME280;18593;51.426;7.030;2023-01-29T01:38:20;101903.31;;;1.77;55.94
32081;BME280;18593;51.426;7.030;2023-01-29T01:40:47;101896.13;;;1.79;55.92
32081;BME280;18593;51.426;7.030;2023-01-29T01:43:14;101899.09;;;1.75;55.98
32081;BME280;18593;51.426;7.030;2023-01-29T01:45:41;101894.09;;;1.72;55.99
32081;BME280;18593;51.426;7.030;2023-01-29T01:48:16;101899.09;;;1.75;56.28
32081;BME280;18593;51.426;7.030;2023-01-29T01:50:47;101891.94;;;1.77;55.99
32081;BME280;18593;51.426;7.030;2023-01-29T01:53:17;101900.91;;;1.74;56.00
32081;BME280;18593;51.426;7.030;2023-01-29T01:55:48;101901.63;;;1.76;56.14
32081;BME280;18593;51.426;7.030;2023-01-29T01:58:18;101907.81;;;1.75;56.19
32081;BME280;18593;51.426;7.030;2023-01-29T02:00:47;101905.81;;;1.68;56.37
32081;BME280;18593;51.426;7.030;2023-01-29T02:03:16;101908.44;;;1.68;56.52
32081;BME280;18593;51.426;7.030;2023-01-29T02:06:03;101906.97;;;1.64;56.62
32081;BME280;18593;51.426;7.030;2023-01-29T02:08:52;101907.69;;;1.66;56.68
32081;BME280;18593;51.426;7.030;2023-01-29T02:11:38;101916.66;;;1.63;56.75
32081;BME280;18593;51.426;7.030;2023-01-29T02:14:05;101918.47;;;1.63;56.71
32081;BME280;18593;51.426;7.030;2023-01-29T02:16:34;101905.06;;;1.66;56.87
32081;BME280;18593;51.426;7.030;2023-01-29T02:19:04;101914.16;;;1.62;56.77
32081;BME280;18593;51.426;7.030;2023-01-29T02:21:49;101923.13;;;1.59;56.81
32081;BME280;18593;51.426;7.030;2023-01-29T02:24:54;101913.44;;;1.60;56.98
32081;BME280;18593;51.426;7.030;2023-01-29T02:27:28;101920.25;;;1.62;56.82
32081;BME280;18593;51.426;7.030;2023-01-29T02:30:02;101928.25;;;1.61;56.91
32081;BME280;18593;51.426;7.030;2023-01-29T02:32:33;101927.53;;;1.59;56.97
32081;BME280;18593;51.426;7.030;2023-01-29T02:35:10;101927.41;;;1.60;57.00
32081;BME280;18593;51.426;7.030;2023-01-29T02:37:56;101927.19;;;1.63;56.96
32081;BME280;18593;51.426;7.030;2023-01-29T02:40:28;101921.22;;;1.61;56.67
32081;BME280;18593;51.426;7.030;2023-01-29T02:43:01;101930.16;;;1.59;56.65
32081;BME280;18593;51.426;7.030;2023-01-29T02:45:32;101925.88;;;1.58;56.81
32081;BME280;18593;51.426;7.030;2023-01-29T02:48:01;101928.38;;;1.59;56.87
32081;BME280;18593;51.426;7.030;2023-01-29T02:50:30;101927.31;;;1.62;56.87
32081;BME280;18593;51.426;7.030;2023-01-29T02:53:01;101918.94;;;1.57;56.96
32081;BME280;18593;51.426;7.030;2023-01-29T02:55:34;101916.91;;;1.60;56.91
32081;BME280;18593;51.426;7.030;2023-01-29T02:58:06;101920.25;;;1.62;56.92
32081;BME280;18593;51.426;7.030;2023-01-29T03:00:39;101919.66;;;1.59;56.88
32081;BME280;18593;51.426;7.030;2023-01-29T03:03:09;101908.91;;;1.62;56.92
32081;BME280;18593;51.426;7.030;2023-01-29T03:05:47;101915.22;;;1.59;56.86
32081;BME280;18593;51.426;7.030;2023-01-29T03:08:22;101917.38;;;1.54;57.33
32081;BME280;18593;51.426;7.030;2023-01-29T03:11:03;101924.28;;;1.55;57.16
32081;BME280;18593;51.426;7.030;2023-01-29T03:13:35;101917.38;;;1.54;57.43
32081;BME280;18593;51.426;7.030;2023-01-29T03:16:09;101916.53;;;1.53;57.07
32081;BME280;18593;51.426;7.030;2023-01-29T03:18:42;101912.94;;;1.54;57.21
32081;BME280;18593;51.426;7.030;2023-01-29T03:21:14;101908.44;;;1.57;57.37
32081;BME280;18593;51.426;7.030;2023-01-29T03:24:00;101906.84;;;1.54;57.56
32081;BME280;18593;51.426;7.030;2023-01-29T03:26:46;101912.47;;;1.49;57.58
32081;BME280;18593;51.426;7.030;2023-01-29T03:29:34;101921.91;;;1.52;57.68
32081;BME280;18593;51.426;7.030;2023-01-29T03:32:24;101921.56;;;1.57;57.28
32081;BME280;18593;51.426;7.030;2023-01-29T03:34:57;101912.72;;;1.58;57.33
32081;BME280;18593;51.426;7.030;2023-01-29T03:37:30;101912.72;;;1.58;57.51
32081;BME280;18593;51.426;7.030;2023-01-29T03:40:02;101906.84;;;1.54;57.34
32081;BME280;18593;51.426;7.030;2023-01-29T03:42:34;101917.38;;;1.54;57.65
32081;BME280;18593;51.426;7.030;2023-01-29T03:45:06;101909.59;;;1.52;57.79
32081;BME280;18593;51.426;7.030;2023-01-29T03:47:43;101903.25;;;1.55;57.84
32081;BME280;18593;51.426;7.030;2023-01-29T03:50:19;101908.06;;;1.61;57.71
32081;BME280;18593;51.426;7.030;2023-01-29T03:52:54;101895.28;;;1.57;57.67
32081;BME280;18593;51.426;7.030;2023-01-29T03:55:26;101898.63;;;1.59;57.58
32081;BME280;18593;51.426;7.030;2023-01-29T03:57:58;101897.78;;;1.58;57.65
32081;BME280;18593;51.426;7.030;2023-01-29T04:00:27;101906.03;;;1.53;57.89
32081;BME280;18593;51.426;7.030;2023-01-29T04:03:04;101902.69;;;1.51;57.99
32081;BME280;18593;51.426;7.030;2023-01-29T04:05:38;101896.22;;;1.55;58.06
32081;BME280;18593;51.426;7.030;2023-01-29T04:08:17;101903.25;;;1.55;57.42
32081;BME280;18593;51.426;7.030;2023-01-29T04:10:46;101903.63;;;1.50;58.08
32081;BME280;18593;51.426;7.030;2023-01-29T04:13:15;101908.38;;;1.45;58.38
32081;BME280;18593;51.426;7.030;2023-01-29T04:15:47;101901.72;;;1.52;57.85
32081;BME280;18593;51.426;7.030;2023-01-29T04:18:21;101892.88;;;1.53;58.00
32081;BME280;18593;51.426;7.030;2023-01-29T04:21:05;101886.53;;;1.56;57.86
32081;BME280;18593;51.426;7.030;2023-01-29T04:23:33;101880.34;;;1.57;57.90
32081;BME280;18593;51.426;7.030;2023-01-29T04:26:17;101883.81;;;1.58;57.81
32081;BME280;18593;51.426;7.030;2023-01-29T04:28:54;101879.50;;;1.57;58.11
32081;BME280;18593;51.426;7.030;2023-01-29T04:31:27;101870.66;;;1.58;58.06
32081;BME280;18593;51.426;7.030;2023-01-29T04:34:00;101868.63;;;1.61;57.85
32081;BME280;18593;51.426;7.030;2023-01-29T04:36:37;101868.25;;;1.54;58.16
32081;BME280;18593;51.426;7.030;2023-01-29T04:39:11;101871.72;;;1.55;58.31
32081;BME280;18593;51.426;7.030;2023-01-29T04:41:41;101870.88;;;1.54;58.38
32081;BME280;18593;51.426;7.030;2023-01-29T04:44:13;101874.81;;;1.60;58.62
32081;BME280;18593;51.426;7.030;2023-01-29T04:46:46;101879.72;;;1.65;58.43
32081;BME280;18593;51.426;7.030;2023-01-29T04:49:22;101857.16;;;1.62;58.42
32081;BME280;18593;51.426;7.030;2023-01-29T04:51:57;101860.25;;;1.56;58.72
32081;BME280;18593;51.426;7.030;2023-01-29T04:54:31;101858.94;;;1.62;58.69
32081;BME280;18593;51.426;7.030;2023-01-29T04:57:04;101863.47;;;1.60;58.98
32081;BME280;18593;51.426;7.030;2023-01-29T04:59:34;101850.81;;;1.53;58.89
32081;BME280;18593;51.426;7.030;2023-01-29T05:02:02;101855.09;;;1.54;59.15
32081;BME280;18593;51.426;7.030;2023-01-29T05:04:31;101859.06;;;1.60;59.42
32081;BME280;18593;51.426;7.030;2023-01-29T05:07:01;101852.88;;;1.61;59.25
32081;BME280;18593;51.426;7.030;2023-01-29T05:09:28;101848.66;;;1.59;59.48
32081;BME280;18593;51.426;7.030;2023-01-29T05:11:56;101844.84;;;1.63;59.47
32081;BME280;18593;51.426;7.030;2023-01-29T05:14:24;101836.97;;;1.63;59.50
32081;BME280;18593;51.426;7.030;2023-01-29T05:16:52;101838.84;;;1.61;59.86
32081;BME280;18593;51.426;7.030;2023-01-29T05:19:22;101823.94;;;1.61;59.86
32081;BME280;18593;51.426;7.030;2023-01-29T05:21:51;101829.56;;;1.57;59.91
32081;BME280;18593;51.426;7.030;2023-01-29T05:24:21;101816.41;;;1.57;60.14
32081;BME280;18593;51.426;7.030;2023-01-29T05:26:50;101813.53;;;1.60;60.16
32081;BME280;18593;51.426;7.030;2023-01-29T05:29:35;101811.38;;;1.65;59.96
32081;BME280;18593;51.426;7.030;2023-01-29T05:32:02;101804.91;;;1.69;60.00
32081;BME280;18593;51.426;7.030;2023-01-29T05:34:29;101805.53;;;1.72;59.91
32081;BME280;18593;51.426;7.030;2023-01-29T05:36:57;101808.75;;;1.65;59.99
32081;BME280;18593;51.426;7.030;2023-01-29T05:39:24;101805.41;;;1.63;60.06
32081;BME280;18593;51.426;7.030;2023-01-29T05:41:51;101799.31;;;1.62;60.08
32081;BME280;18593;51.426;7.030;2023-01-29T05:44:18;101807.31;;;1.61;60.16
32081;BME280;18593;51.426;7.030;2023-01-29T05:46:46;101806.72;;;1.57;60.39
32081;BME280;18593;51.426;7.030;2023-01-29T05:49:13;101805.63;;;1.60;60.31
32081;BME280;18593;51.426;7.030;2023-01-29T05:51:39;101814.34;;;1.60;60.40
32081;BME280;18593;51.426;7.030;2023-01-29T05:54:10;101817.47;;;1.54;60.49
32081;BME280;18593;51.426;7.030;2023-01-29T05:56:36;101818.06;;;1.58;60.72
32081;BME280;18593;51.426;7.030;2023-01-29T05:59:03;101830.59;;;1.65;60.54
32081;BME280;18593;51.426;7.030;2023-01-29T06:01:31;101837.44;;;1.68;60.36
32081;BME280;18593;51.426;7.030;2023-01-29T06:03:58;101837.44;;;1.68;60.42
32081;BME280;18593;51.426;7.030;2023-01-29T06:06:25;101832.03;;;1.69;60.36
32081;BME280;18593;51.426;7.030;2023-01-29T06:08:52;101840.41;;;1.74;60.25
32081;BME280;18593;51.426;7.030;2023-01-29T06:11:20;101848.66;;;1.70;60.22
32081;BME280;18593;51.426;7.030;2023-01-29T06:13:47;101847.94;;;1.68;60.58
32081;BME280;18593;51.426;7.030;2023-01-29T06:16:14;101857.38;;;1.70;60.49
32081;BME280;18593;51.426;7.030;2023-01-29T06:18:41;101863.38;;;1.72;60.42
32081;BME280;18593;51.426;7.030;2023-01-29T06:21:10;101862.28;;;1.75;60.54
32081;BME280;18593;51.426;7.030;2023-01-29T06:23:38;101872.94;;;1.73;60.69
32081;BME280;18593;51.426;7.030;2023-01-29T06:26:06;101866.34;;;1.79;60.68
32081;BME280;18593;51.426;7.030;2023-01-29T06:28:35;101860.88;;;1.82;60.41
32081;BME280;18593;51.426;7.030;2023-01-29T06:31:03;101868.75;;;1.82;60.41
32081;BME280;18593;51.426;7.030;2023-01-29T06:33:30;101872.31;;;1.70;60.55
32081;BME280;18593;51.426;7.030;2023-01-29T06:35:57;101881.66;;;1.74;60.66
32081;BME280;18593;51.426;7.030;2023-01-29T06:38:25;101872.81;;;1.75;60.67
32081;BME280;18593;51.426;7.030;2023-01-29T06:40:52;101869.81;;;1.68;60.92
32081;BME280;18593;51.426;7.030;2023-01-29T06:43:20;101860.75;;;1.72;60.82
32081;BME280;18593;51.426;7.030;2023-01-29T06:45:50;101858.25;;;1.71;60.70
32081;BME280;18593;51.426;7.030;2023-01-29T06:48:18;101852.97;;;1.71;60.84
32081;BME280;18593;51.426;7.030;2023-01-29T06:50:45;101865.41;;;1.69;61.09
32081;BME280;18593;51.426;7.030;2023-01-29T06:53:12;101859.44;;;1.67;61.04
32081;BME280;18593;51.426;7.030;2023-01-29T06:55:39;101865.03;;;1.62;61.08
32081;BME280;18593;51.426;7.030;2023-01-29T06:58:06;101862.91;;;1.67;61.41
32081;BME280;18593;51.426;7.030;2023-01-29T07:00:34;101852.47;;;1.66;61.20
32081;BME280;18593;51.426;7.030;2023-01-29T07:03:03;101857.03;;;1.64;61.21
32081;BME280;18593;51.426;7.030;2023-01-29T07:05:30;101855.72;;;1.69;61.16
32081;BME280;18593;51.426;7.030;2023-01-29T07:07:57;101853.22;;;1.68;61.07
32081;BME280;18593;51.426;7.030;2023-01-29T07:10:24;101850.09;;;1.51;61.24
32081;BME280;18593;51.426;7.030;2023-01-29T07:12:51;101843.88;;;1.52;61.49
32081;BME280;18593;51.426;7.030;2023-01-29T07:15:19;101841.34;;;1.51;61.44
32081;BME280;18593;51.426;7.030;2023-01-29T07:17:56;101847.94;;;1.45;62.05
32081;BME280;18593;51.426;7.030;2023-01-29T07:20:26;101856.06;;;1.42;62.17
32081;BME280;18593;51.426;7.030;2023-01-29T07:22:53;101852.81;;;1.39;62.26
32081;BME280;18593;51.426;7.030;2023-01-29T07:25:20;101839.91;;;1.36;62.24
32081;BME280;18593;51.426;7.030;2023-01-29T07:27:47;101845.41;;;1.33;62.27
32081;BME280;18593;51.426;7.030;2023-01-29T07:30:15;101852.56;;;1.31;62.63
32081;BME280;18593;51.426;7.030;2023-01-29T07:32:42;101844.81;;;1.40;62.58
32081;BME280;18593;51.426;7.030;2023-01-29T07:35:09;101833.72;;;1.37;62.58
32081;BME280;18593;51.426;7.030;2023-01-29T07:37:37;101841.81;;;1.34;62.82
32081;BME280;18593;51.426;7.030;2023-01-29T07:40:05;101844.31;;;1.35;62.88
32081;BME280;18593;51.426;7.030;2023-01-29T07:42:36;101849.38;;;1.38;62.82
32081;BME280;18593;51.426;7.030;2023-01-29T07:45:05;101842.09;;;1.42;62.72
32081;BME280;18593;51.426;7.030;2023-01-29T07:47:32;101843.50;;;1.46;62.86
32081;BME280;18593;51.426;7.030;2023-01-29T07:49:59;101838.16;;;1.47;62.63
32081;BME280;18593;51.426;7.030;2023-01-29T07:52:28;101819.75;;;1.47;62.65
32081;BME280;18593;51.426;7.030;2023-01-29T07:54:57;101841.25;;;1.52;62.78
32081;BME280;18593;51.426;7.030;2023-01-29T07:57:24;101841.00;;;1.55;62.72
32081;BME280;18593;51.426;7.030;2023-01-29T07:59:51;101834.56;;;1.60;62.65
32081;BME280;18593;51.426;7.030;2023-01-29T08:02:18;101827.28;;;1.63;62.29
32081;BME280;18593;51.426;7.030;2023-01-29T08:04:45;101827.16;;;1.53;62.07
32081;BME280;18593;51.426;7.030;2023-01-29T08:07:12;101834.06;;;1.43;62.54
32081;BME280;18593;51.426;7.030;2023-01-29T08:09:39;101828.47;;;1.37;62.61
32081;BME280;18593;51.426;7.030;2023-01-29T08:12:07;101829.41;;;1.36;62.90
32081;BME280;18593;51.426;7.030;2023-01-29T08:14:34;101841.47;;;1.38;63.11
32081;BME280;18593;51.426;7.030;2023-01-29T08:17:01;101846.47;;;1.30;63.38
32081;BME280;18593;51.426;7.030;2023-01-29T08:19:28;101839.47;;;1.42;63.27
32081;BME280;18593;51.426;7.030;2023-01-29T08:21:55;101835.75;;;1.44;63.01
32081;BME280;18593;51.426;7.030;2023-01-29T08:24:22;101835.63;;;1.46;63.04
32081;BME280;18593;51.426;7.030;2023-01-29T08:26:49;101833.47;;;1.51;62.96
32081;BME280;18593;51.426;7.030;2023-01-29T08:29:18;101822.13;;;1.50;62.92
32081;BME280;18593;51.426;7.030;2023-01-29T08:31:46;101835.88;;;1.43;62.99
32081;BME280;18593;51.426;7.030;2023-01-29T08:34:13;101827.63;;;1.47;62.92
32081;BME280;18593;51.426;7.030;2023-01-29T08:36:40;101827.28;;;1.52;62.71
32081;BME280;18593;51.426;7.030;2023-01-29T08:39:07;101828.94;;;1.53;62.64
32081;BME280;18593;51.426;7.030;2023-01-29T08:41:34;101828.22;;;1.51;62.80
32081;BME280;18593;51.426;7.030;2023-01-29T08:44:01;101824.75;;;1.50;62.84
32081;BME280;18593;51.426;7.030;2023-01-29T08:46:30;101815.19;;;1.49;62.69
32081;BME280;18593;51.426;7.030;2023-01-29T08:48:57;101805.63;;;1.48;62.74
32081;BME280;18593;51.426;7.030;2023-01-29T08:51:24;101810.28;;;1.45;63.03
32081;BME280;18593;51.426;7.030;2023-01-29T08:53:52;101801.78;;;1.41;63.25
32081;BME280;18593;51.426;7.030;2023-01-29T08:56:19;101804.19;;;1.33;63.29
32081;BME280;18593;51.426;7.030;2023-01-29T08:58:46;101795.34;;;1.34;63.04
32081;BME280;18593;51.426;7.030;2023-01-29T09:01:13;101806.69;;;1.35;63.28
32081;BME280;18593;51.426;7.030;2023-01-29T09:03:41;101808.16;;;1.39;63.61
32081;BME280;18593;51.426;7.030;2023-01-29T09:06:10;101804.56;;;1.40;63.35
32081;BME280;18593;51.426;7.030;2023-01-29T09:08:37;101812.19;;;1.32;63.50
32081;BME280;18593;51.426;7.030;2023-01-29T09:11:05;101805.16;;;1.32;63.45
32081;BME280;18593;51.426;7.030;2023-01-29T09:13:32;101795.59;;;1.31;63.72
32081;BME280;18593;51.426;7.030;2023-01-29T09:16:00;101793.56;;;1.35;63.81
32081;BME280;18593;51.426;7.030;2023-01-29T09:18:27;101791.53;;;1.38;64.07
32081;BME280;18593;51.426;7.030;2023-01-29T09:20:56;101795.47;;;1.44;63.68
32081;BME280;18593;51.426;7.030;2023-01-29T09:23:23;101794.16;;;1.38;63.90
32081;BME280;18593;51.426;7.030;2023-01-29T09:25:50;101776.00;;;1.35;63.40
32081;BME280;18593;51.426;7.030;2023-01-29T09:28:17;101763.34;;;1.29;63.78
32081;BME280;18593;51.426;7.030;2023-01-29T09:30:44;101764.03;;;1.31;63.81
32081;BME280;18593;51.426;7.030;2023-01-29T09:33:11;101774.56;;;1.31;64.03
32081;BME280;18593;51.426;7.030;2023-01-29T09:35:39;101770.75;;;1.24;64.44
32081;BME280;18593;51.426;7.030;2023-01-29T09:38:08;101767.75;;;1.28;64.38
32081;BME280;18593;51.426;7.030;2023-01-29T09:40:40;101762.88;;;1.24;64.12
32081;BME280;18593;51.426;7.030;2023-01-29T09:43:11;101766.19;;;1.26;64.39
32081;BME280;18593;51.426;7.030;2023-01-29T09:45:49;101761.78;;;1.26;64.50
32081;BME280;18593;51.426;7.030;2023-01-29T09:48:17;101767.91;;;1.27;64.39
32081;BME280;18593;51.426;7.030;2023-01-29T09:50:46;101769.91;;;1.23;64.53
32081;BME280;18593;51.426;7.030;2023-01-29T09:53:19;101776.47;;;1.29;64.68
32081;BME280;18593;51.426;7.030;2023-01-29T09:56:00;101766.94;;;1.39;65.09
32081;BME280;18593;51.426;7.030;2023-01-29T09:58:30;101759.28;;;1.47;64.64
32081;BME280;18593;51.426;7.030;2023-01-29T10:01:02;101766.22;;;1.48;64.36
32081;BME280;18593;51.426;7.030;2023-01-29T10:03:44;101772.53;;;1.57;64.54
32081;BME280;18593;51.426;7.030;2023-01-29T10:06:22;101770.00;;;1.55;63.64
32081;BME280;18593;51.426;7.030;2023-01-29T10:09:07;101766.56;;;1.55;63.70
32081;BME280;18593;51.426;7.030;2023-01-29T10:11:40;101768.81;;;1.60;63.83
32081;BME280;18593;51.426;7.030;2023-01-29T10:14:15;101775.75;;;1.61;63.75
32081;BME280;18593;51.426;7.030;2023-01-29T10:16:52;101768.59;;;1.63;63.61
32081;BME280;18593;51.426;7.030;2023-01-29T10:19:34;101776.72;;;1.60;63.19
32081;BME280;18593;51.426;7.030;2023-01-29T10:22:20;101774.09;;;1.60;63.13
32081;BME280;18593;51.426;7.030;2023-01-29T10:24:57;101776.25;;;1.54;63.58
32081;BME280;18593;51.426;7.030;2023-01-29T10:27:29;101770.16;;;1.54;63.54
32081;BME280;18593;51.426;7.030;2023-01-29T10:29:57;101763.81;;;1.57;63.91
32081;BME280;18593;51.426;7.030;2023-01-29T10:32:26;101762.72;;;1.59;63.67
32081;BME280;18593;51.426;7.030;2023-01-29T10:34:55;101760.84;;;1.61;63.73
32081;BME280;18593;51.426;7.030;2023-01-29T10:37:27;101747.78;;;1.60;63.91
32081;BME280;18593;51.426;7.030;2023-01-29T10:39:58;101746.00;;;1.60;63.39
32081;BME280;18593;51.426;7.030;2023-01-29T10:42:28;101746.63;;;1.52;63.68
32081;BME280;18593;51.426;7.030;2023-01-29T10:45:03;101742.91;;;1.55;63.71
32081;BME280;18593;51.426;7.030;2023-01-29T10:47:49;101728.31;;;1.62;63.85
32081;BME280;18593;51.426;7.030;2023-01-29T10:50:27;101735.94;;;1.65;63.42
32081;BME280;18593;51.426;7.030;2023-01-29T10:55:55;101729.16;;;1.63;63.74
32081;BME280;18593;51.426;7.030;2023-01-29T10:58:29;101713.38;;;1.63;63.61
32081;BME280;18593;51.426;7.030;2023-01-29T11:00:59;101717.81;;;1.62;63.73
32081;BME280;18593;51.426;7.030;2023-01-29T11:03:28;101716.00;;;1.63;63.71
32081;BME280;18593;51.426;7.030;2023-01-29T11:06:01;101717.69;;;1.64;63.45
32081;BME280;18593;51.426;7.030;2023-01-29T11:08:32;101706.19;;;1.65;63.81
32081;BME280;18593;51.426;7.030;2023-01-29T11:11:07;101709.28;;;1.70;63.92
32081;BME280;18593;51.426;7.030;2023-01-29T11:13:39;101706.44;;;1.73;63.82
32081;BME280;18593;51.426;7.030;2023-01-29T11:16:08;101703.94;;;1.71;64.02
32081;BME280;18593;51.426;7.030;2023-01-29T11:18:49;101702.69;;;1.75;63.89
32081;BME280;18593;51.426;7.030;2023-01-29T11:21:17;101689.19;;;1.80;64.01
32081;BME280;18593;51.426;7.030;2023-01-29T11:23:44;101690.28;;;1.77;63.61
32081;BME280;18593;51.426;7.030;2023-01-29T11:26:16;101691.44;;;1.85;63.31
32081;BME280;18593;51.426;7.030;2023-01-29T11:28:46;101687.75;;;1.87;63.08
32081;BME280;18593;51.426;7.030;2023-01-29T11:31:21;101684.28;;;1.87;63.03
32081;BME280;18593;51.426;7.030;2023-01-29T11:33:50;101682.72;;;1.84;63.32
32081;BME280;18593;51.426;7.030;2023-01-29T11:36:28;101674.13;;;1.82;63.04
32081;BME280;18593;51.426;7.030;2023-01-29T11:39:19;101667.19;;;1.81;63.41
32081;BME280;18593;51.426;7.030;2023-01-29T11:41:50;101671.22;;;1.85;63.58
32081;BME280;18593;51.426;7.030;2023-01-29T11:44:29;101668.59;;;1.85;63.54
32081;BME280;18593;51.426;7.030;2023-01-29T11:46:59;101673.84;;;1.85;63.34
32081;BME280;18593;51.426;7.030;2023-01-29T11:49:36;101660.25;;;1.80;63.53
32081;BME280;18593;51.426;7.030;2023-01-29T11:52:05;101660.25;;;1.80;63.56
32081;BME280;18593;51.426;7.030;2023-01-29T11:54:36;101652.50;;;1.78;63.47
32081;BME280;18593;51.426;7.030;2023-01-29T11:57:16;101648.34;;;1.76;63.45
32081;BME280;18593;51.426;7.030;2023-01-29T11:59:48;101651.66;;;1.78;63.96
32081;BME280;18593;51.426;7.030;2023-01-29T12:02:22;101629.66;;;1.79;63.80
32081;BME280;18593;51.426;7.030;2023-01-29T12:04:51;101632.16;;;1.80;63.80
32081;BME280;18593;51.426;7.030;2023-01-29T12:07:19;101620.56;;;1.83;64.01
32081;BME280;18593;51.426;7.030;2023-01-29T12:09:49;101615.63;;;1.90;63.91
32081;BME280;18593;51.426;7.030;2023-01-29T12:12:27;101608.56;;;1.90;63.91
32081;BME280;18593;51.426;7.030;2023-01-29T12:15:03;101603.06;;;1.93;64.18
32081;BME280;18593;51.426;7.030;2023-01-29T12:17:30;101591.09;;;2.00;63.86
32081;BME280;18593;51.426;7.030;2023-01-29T12:20:03;101567.97;;;2.04;63.43
32081;BME280;18593;51.426;7.030;2023-01-29T12:22:39;101563.53;;;2.04;63.62
32081;BME280;18593;51.426;7.030;2023-01-29T12:25:15;101556.22;;;2.08;63.75
32081;BME280;18593;51.426;7.030;2023-01-29T12:27:46;101548.59;;;2.05;62.99
32081;BME280;18593;51.426;7.030;2023-01-29T12:30:18;101544.56;;;2.01;63.28
32081;BME280;18593;51.426;7.030;2023-01-29T12:32:48;101534.97;;;2.00;63.32
32081;BME280;18593;51.426;7.030;2023-01-29T12:35:30;101527.09;;;2.00;63.97
32081;BME280;18593;51.426;7.030;2023-01-29T12:37:59;101527.41;;;2.06;64.26
32081;BME280;18593;51.426;7.030;2023-01-29T12:40:32;101521.44;;;2.04;63.47
32081;BME280;18593;51.426;7.030;2023-01-29T12:43:10;101517.88;;;2.05;63.71
32081;BME280;18593;51.426;7.030;2023-01-29T12:45:38;101507.88;;;2.09;63.71
32081;BME280;18593;51.426;7.030;2023-01-29T12:48:08;101514.13;;;2.08;63.65
32081;BME280;18593;51.426;7.030;2023-01-29T12:50:37;101505.69;;;2.14;63.67
32081;BME280;18593;51.426;7.030;2023-01-29T12:53:22;101504.75;;;2.15;63.50
32081;BME280;18593;51.426;7.030;2023-01-29T12:55:52;101509.06;;;2.16;63.57
32081;BME280;18593;51.426;7.030;2023-01-29T12:58:24;101497.41;;;2.19;63.25
32081;BME280;18593;51.426;7.030;2023-01-29T13:00:55;101496.59;;;2.18;63.33
32081;BME280;18593;51.426;7.030;2023-01-29T13:03:33;101495.75;;;2.18;63.56
32081;BME280;18593;51.426;7.030;2023-01-29T13:06:07;101486.06;;;2.18;62.63
32081;BME280;18593;51.426;7.030;2023-01-29T13:08:37;101488.84;;;2.17;63.34
32081;BME280;18593;51.426;7.030;2023-01-29T13:24:50;101484.19;;;2.30;63.33
32081;BME280;18593;51.426;7.030;2023-01-29T13:27:35;101485.56;;;2.34;63.13
32081;BME280;18593;51.426;7.030;2023-01-29T13:30:24;101488.19;;;2.34;63.28
32081;BME280;18593;51.426;7.030;2023-01-29T13:32:52;101489.16;;;2.33;63.49
32081;BME280;18593;51.426;7.030;2023-01-29T13:35:20;101489.75;;;2.37;62.58
32081;BME280;18593;51.426;7.030;2023-01-29T13:37:49;101480.78;;;2.39;63.28